sensor_id;sensor_type;location;lat;lon;timestamp;P1;durP1;ratioP1;P2;durP2;ratioP2
57101;SDS011;42982;54.558;18.508;2022-10-14T00:00:01;18.38;;;6.57;;
57101;SDS011;42982;54.558;18.508;2022-10-14T00:01:16;15.40;;;6.60;;
57101;SDS011;42982;54.558;18.508;2022-10-14T00:02:19;15.35;;;6.35;;
57101;SDS011;42982;54.558;18.508;2022-10-14T00:03:29;16.52;;;7.32;;
57101;SDS011;42982;54.558;18.508;2022-10-14T00:04:36;20.10;;;6.82;;
57101;SDS011;42982;54.558;18.508;2022-10-14T00:05:38;23.75;;;7.18;;
57101;SDS011;42982;54.558;18.508;2022-10-14T00:06:44;14.95;;;6.75;;
57101;SDS011;42982;54.558;18.508;2022-10-14T00:07:48;15.85;;;6.25;;
57101;SDS011;42982;54.558;18.508;2022-10-14T00:08:54;16.92;;;6.93;;
57101;SDS011;42982;54.558;18.508;2022-10-14T00:09:55;17.48;;;7.03;;
57101;SDS011;42982;54.558;18.508;2022-10-14T00:11:06;17.98;;;7.00;;
57101;SDS011;42982;54.558;18.508;2022-10-14T00:12:10;16.08;;;6.60;;
57101;SDS011;42982;54.558;18.508;2022-10-14T00:13:15;14.55;;;7.18;;
57101;SDS011;42982;54.558;18.508;2022-10-14T00:14:18;16.98;;;7.63;;
57101;SDS011;42982;54.558;18.508;2022-10-14T00:15:24;15.60;;;7.30;;
57101;SDS011;42982;54.558;18.508;2022-10-14T00:16:29;16.90;;;6.78;;
57101;SDS011;42982;54.558;18.508;2022-10-14T00:17:37;13.68;;;6.70;;
57101;SDS011;42982;54.558;18.508;2022-10-14T00:18:41;17.77;;;7.32;;
57101;SDS011;42982;54.558;18.508;2022-10-14T00:19:46;18.02;;;7.10;;
57101;SDS011;42982;54.558;18.508;2022-10-14T00:20:54;16.38;;;7.00;;
57101;SDS011;42982;54.558;18.508;2022-10-14T00:21:57;14.95;;;6.50;;
57101;SDS011;42982;54.558;18.508;2022-10-14T00:23:02;21.63;;;7.93;;
57101;SDS011;42982;54.558;18.508;2022-10-14T00:24:07;19.00;;;8.05;;
57101;SDS011;42982;54.558;18.508;2022-10-14T00:25:12;15.90;;;7.47;;
57101;SDS011;42982;54.558;18.508;2022-10-14T00:27:26;13.80;;;6.78;;
57101;SDS011;42982;54.558;18.508;2022-10-14T00:28:29;15.40;;;7.18;;
57101;SDS011;42982;54.558;18.508;2022-10-14T00:29:36;15.90;;;7.82;;
57101;SDS011;42982;54.558;18.508;2022-10-14T00:30:38;18.65;;;7.90;;
57101;SDS011;42982;54.558;18.508;2022-10-14T00:31:43;18.70;;;7.13;;
57101;SDS011;42982;54.558;18.508;2022-10-14T00:32:45;18.38;;;7.55;;
57101;SDS011;42982;54.558;18.508;2022-10-14T00:33:47;19.40;;;7.93;;
57101;SDS011;42982;54.558;18.508;2022-10-14T00:34:50;23.88;;;7.38;;
57101;SDS011;42982;54.558;18.508;2022-10-14T00:35:56;20.17;;;6.90;;
57101;SDS011;42982;54.558;18.508;2022-10-14T00:37:10;14.75;;;6.75;;
57101;SDS011;42982;54.558;18.508;2022-10-14T00:38:12;14.20;;;7.38;;
57101;SDS011;42982;54.558;18.508;2022-10-14T00:39:14;18.38;;;7.63;;
57101;SDS011;42982;54.558;18.508;2022-10-14T00:40:20;16.20;;;7.20;;
57101;SDS011;42982;54.558;18.508;2022-10-14T00:41:27;17.70;;;7.20;;
57101;SDS011;42982;54.558;18.508;2022-10-14T00:42:32;19.80;;;7.40;;
57101;SDS011;42982;54.558;18.508;2022-10-14T00:45:09;15.88;;;7.45;;
57101;SDS011;42982;54.558;18.508;2022-10-14T00:46:16;16.02;;;7.05;;
57101;SDS011;42982;54.558;18.508;2022-10-14T00:47:28;17.90;;;7.57;;
57101;SDS011;42982;54.558;18.508;2022-10-14T00:48:32;20.38;;;7.57;;
57101;SDS011;42982;54.558;18.508;2022-10-14T00:49:37;20.55;;;7.70;;
57101;SDS011;42982;54.558;18.508;2022-10-14T00:50:48;17.55;;;7.75;;
57101;SDS011;42982;54.558;18.508;2022-10-14T00:51:59;18.45;;;8.07;;
57101;SDS011;42982;54.558;18.508;2022-10-14T00:53:12;16.75;;;7.32;;
57101;SDS011;42982;54.558;18.508;2022-10-14T00:54:17;15.55;;;7.28;;
57101;SDS011;42982;54.558;18.508;2022-10-14T00:55:26;16.38;;;7.55;;
57101;SDS011;42982;54.558;18.508;2022-10-14T00:56:31;16.60;;;7.97;;
57101;SDS011;42982;54.558;18.508;2022-10-14T00:57:40;25.33;;;7.45;;
57101;SDS011;42982;54.558;18.508;2022-10-14T00:58:45;14.57;;;7.43;;
57101;SDS011;42982;54.558;18.508;2022-10-14T00:59:57;16.42;;;7.78;;
57101;SDS011;42982;54.558;18.508;2022-10-14T01:01:07;19.45;;;8.00;;
57101;SDS011;42982;54.558;18.508;2022-10-14T01:02:10;17.70;;;8.07;;
57101;SDS011;42982;54.558;18.508;2022-10-14T01:03:17;20.35;;;8.55;;
57101;SDS011;42982;54.558;18.508;2022-10-14T01:04:26;18.67;;;8.13;;
57101;SDS011;42982;54.558;18.508;2022-10-14T01:05:32;18.98;;;8.32;;
57101;SDS011;42982;54.558;18.508;2022-10-14T01:06:49;22.55;;;8.55;;
57101;SDS011;42982;54.558;18.508;2022-10-14T01:08:16;22.10;;;8.95;;
57101;SDS011;42982;54.558;18.508;2022-10-14T01:09:29;22.02;;;8.40;;
57101;SDS011;42982;54.558;18.508;2022-10-14T01:10:49;16.13;;;7.18;;
57101;SDS011;42982;54.558;18.508;2022-10-14T01:13:28;19.50;;;8.75;;
57101;SDS011;42982;54.558;18.508;2022-10-14T01:14:39;16.40;;;7.60;;
57101;SDS011;42982;54.558;18.508;2022-10-14T01:17:29;20.30;;;7.90;;
57101;SDS011;42982;54.558;18.508;2022-10-14T01:18:38;17.77;;;8.07;;
57101;SDS011;42982;54.558;18.508;2022-10-14T01:21:26;26.55;;;8.40;;
57101;SDS011;42982;54.558;18.508;2022-10-14T01:24:22;25.48;;;8.52;;
57101;SDS011;42982;54.558;18.508;2022-10-14T01:27:11;20.08;;;8.15;;
57101;SDS011;42982;54.558;18.508;2022-10-14T01:28:22;22.83;;;8.10;;
57101;SDS011;42982;54.558;18.508;2022-10-14T01:31:08;19.95;;;8.35;;
57101;SDS011;42982;54.558;18.508;2022-10-14T01:32:28;20.85;;;8.30;;
57101;SDS011;42982;54.558;18.508;2022-10-14T01:33:46;26.02;;;9.05;;
57101;SDS011;42982;54.558;18.508;2022-10-14T01:36:38;19.10;;;8.70;;
57101;SDS011;42982;54.558;18.508;2022-10-14T01:38:02;23.70;;;8.23;;
57101;SDS011;42982;54.558;18.508;2022-10-14T01:39:29;20.17;;;8.57;;
57101;SDS011;42982;54.558;18.508;2022-10-14T01:40:39;22.15;;;9.20;;
57101;SDS011;42982;54.558;18.508;2022-10-14T01:41:51;19.02;;;9.25;;
57101;SDS011;42982;54.558;18.508;2022-10-14T01:43:02;19.23;;;8.73;;
57101;SDS011;42982;54.558;18.508;2022-10-14T01:44:09;18.52;;;8.70;;
57101;SDS011;42982;54.558;18.508;2022-10-14T01:45:15;21.02;;;8.32;;
57101;SDS011;42982;54.558;18.508;2022-10-14T01:46:27;14.35;;;8.63;;
57101;SDS011;42982;54.558;18.508;2022-10-14T01:47:31;19.75;;;8.18;;
57101;SDS011;42982;54.558;18.508;2022-10-14T01:48:36;23.98;;;8.88;;
57101;SDS011;42982;54.558;18.508;2022-10-14T01:49:46;26.30;;;8.85;;
57101;SDS011;42982;54.558;18.508;2022-10-14T01:50:56;18.85;;;8.40;;
57101;SDS011;42982;54.558;18.508;2022-10-14T01:52:14;16.98;;;8.50;;
57101;SDS011;42982;54.558;18.508;2022-10-14T01:53:24;18.80;;;8.73;;
57101;SDS011;42982;54.558;18.508;2022-10-14T01:54:36;19.75;;;8.77;;
57101;SDS011;42982;54.558;18.508;2022-10-14T01:55:47;17.85;;;8.68;;
57101;SDS011;42982;54.558;18.508;2022-10-14T01:56:54;23.20;;;8.50;;
57101;SDS011;42982;54.558;18.508;2022-10-14T01:58:09;20.55;;;8.80;;
57101;SDS011;42982;54.558;18.508;2022-10-14T01:59:20;20.92;;;8.93;;
57101;SDS011;42982;54.558;18.508;2022-10-14T02:00:32;20.52;;;8.68;;
57101;SDS011;42982;54.558;18.508;2022-10-14T02:01:37;16.75;;;8.80;;
57101;SDS011;42982;54.558;18.508;2022-10-14T02:02:45;26.33;;;8.82;;
57101;SDS011;42982;54.558;18.508;2022-10-14T02:03:48;18.05;;;9.50;;
57101;SDS011;42982;54.558;18.508;2022-10-14T02:04:50;22.23;;;8.52;;
57101;SDS011;42982;54.558;18.508;2022-10-14T02:05:59;23.25;;;9.45;;
57101;SDS011;42982;54.558;18.508;2022-10-14T02:07:39;17.55;;;8.35;;
57101;SDS011;42982;54.558;18.508;2022-10-14T02:11:23;17.63;;;8.18;;
57101;SDS011;42982;54.558;18.508;2022-10-14T02:18:12;18.65;;;8.75;;
57101;SDS011;42982;54.558;18.508;2022-10-14T02:20:52;15.35;;;8.35;;
57101;SDS011;42982;54.558;18.508;2022-10-14T02:22:37;20.08;;;8.93;;
57101;SDS011;42982;54.558;18.508;2022-10-14T02:23:59;24.80;;;9.20;;
57101;SDS011;42982;54.558;18.508;2022-10-14T02:25:10;22.02;;;8.65;;
57101;SDS011;42982;54.558;18.508;2022-10-14T02:26:21;24.00;;;9.20;;
57101;SDS011;42982;54.558;18.508;2022-10-14T02:27:26;21.02;;;9.13;;
57101;SDS011;42982;54.558;18.508;2022-10-14T02:28:32;23.20;;;9.07;;
57101;SDS011;42982;54.558;18.508;2022-10-14T02:29:48;18.38;;;9.25;;
57101;SDS011;42982;54.558;18.508;2022-10-14T02:30:56;24.52;;;9.02;;
57101;SDS011;42982;54.558;18.508;2022-10-14T02:32:03;20.88;;;9.05;;
57101;SDS011;42982;54.558;18.508;2022-10-14T02:33:07;21.65;;;9.35;;
57101;SDS011;42982;54.558;18.508;2022-10-14T02:34:10;19.52;;;8.80;;
57101;SDS011;42982;54.558;18.508;2022-10-14T02:35:15;21.38;;;8.40;;
57101;SDS011;42982;54.558;18.508;2022-10-14T02:36:20;26.20;;;9.85;;
57101;SDS011;42982;54.558;18.508;2022-10-14T02:37:27;20.50;;;9.00;;
57101;SDS011;42982;54.558;18.508;2022-10-14T02:38:33;20.45;;;8.32;;
57101;SDS011;42982;54.558;18.508;2022-10-14T02:39:40;18.52;;;8.60;;
57101;SDS011;42982;54.558;18.508;2022-10-14T02:40:47;24.42;;;8.68;;
57101;SDS011;42982;54.558;18.508;2022-10-14T02:41:56;19.75;;;8.63;;
57101;SDS011;42982;54.558;18.508;2022-10-14T02:43:01;19.50;;;8.32;;
57101;SDS011;42982;54.558;18.508;2022-10-14T02:44:10;16.53;;;8.23;;
57101;SDS011;42982;54.558;18.508;2022-10-14T02:45:15;20.38;;;8.60;;
57101;SDS011;42982;54.558;18.508;2022-10-14T02:46:20;20.65;;;8.88;;
57101;SDS011;42982;54.558;18.508;2022-10-14T02:47:23;18.25;;;9.00;;
57101;SDS011;42982;54.558;18.508;2022-10-14T02:48:29;19.70;;;9.20;;
57101;SDS011;42982;54.558;18.508;2022-10-14T02:49:39;19.65;;;9.25;;
57101;SDS011;42982;54.558;18.508;2022-10-14T02:50:44;23.30;;;9.50;;
57101;SDS011;42982;54.558;18.508;2022-10-14T02:51:49;19.73;;;9.98;;
57101;SDS011;42982;54.558;18.508;2022-10-14T02:52:54;17.83;;;8.65;;
57101;SDS011;42982;54.558;18.508;2022-10-14T02:53:57;22.60;;;8.38;;
57101;SDS011;42982;54.558;18.508;2022-10-14T02:55:01;19.60;;;9.02;;
57101;SDS011;42982;54.558;18.508;2022-10-14T02:56:03;22.38;;;9.48;;
57101;SDS011;42982;54.558;18.508;2022-10-14T02:57:12;19.27;;;8.93;;
57101;SDS011;42982;54.558;18.508;2022-10-14T02:58:19;20.25;;;9.70;;
57101;SDS011;42982;54.558;18.508;2022-10-14T02:59:23;20.08;;;9.50;;
57101;SDS011;42982;54.558;18.508;2022-10-14T03:00:26;20.10;;;9.30;;
57101;SDS011;42982;54.558;18.508;2022-10-14T03:01:30;20.52;;;9.52;;
57101;SDS011;42982;54.558;18.508;2022-10-14T03:02:35;19.30;;;9.63;;
57101;SDS011;42982;54.558;18.508;2022-10-14T03:03:38;21.15;;;9.40;;
57101;SDS011;42982;54.558;18.508;2022-10-14T03:04:41;17.50;;;9.48;;
57101;SDS011;42982;54.558;18.508;2022-10-14T03:05:45;23.15;;;9.18;;
57101;SDS011;42982;54.558;18.508;2022-10-14T03:06:53;21.38;;;9.23;;
57101;SDS011;42982;54.558;18.508;2022-10-14T03:07:58;22.52;;;8.98;;
57101;SDS011;42982;54.558;18.508;2022-10-14T03:09:07;21.02;;;9.48;;
57101;SDS011;42982;54.558;18.508;2022-10-14T03:10:16;25.75;;;10.40;;
57101;SDS011;42982;54.558;18.508;2022-10-14T03:11:19;29.05;;;9.25;;
57101;SDS011;42982;54.558;18.508;2022-10-14T03:12:22;21.17;;;9.82;;
57101;SDS011;42982;54.558;18.508;2022-10-14T03:13:29;20.88;;;8.98;;
57101;SDS011;42982;54.558;18.508;2022-10-14T03:14:31;18.50;;;9.00;;
57101;SDS011;42982;54.558;18.508;2022-10-14T03:15:37;23.05;;;9.68;;
57101;SDS011;42982;54.558;18.508;2022-10-14T03:16:44;25.08;;;9.70;;
57101;SDS011;42982;54.558;18.508;2022-10-14T03:17:57;20.52;;;9.73;;
57101;SDS011;42982;54.558;18.508;2022-10-14T03:19:13;17.08;;;8.63;;
57101;SDS011;42982;54.558;18.508;2022-10-14T03:20:22;19.33;;;9.15;;
57101;SDS011;42982;54.558;18.508;2022-10-14T03:21:32;21.45;;;9.45;;
57101;SDS011;42982;54.558;18.508;2022-10-14T03:22:36;30.83;;;10.43;;
57101;SDS011;42982;54.558;18.508;2022-10-14T03:23:46;21.05;;;8.95;;
57101;SDS011;42982;54.558;18.508;2022-10-14T03:25:00;22.73;;;9.50;;
57101;SDS011;42982;54.558;18.508;2022-10-14T03:26:20;20.13;;;10.07;;
57101;SDS011;42982;54.558;18.508;2022-10-14T03:27:27;21.48;;;9.93;;
57101;SDS011;42982;54.558;18.508;2022-10-14T03:28:40;19.38;;;9.55;;
57101;SDS011;42982;54.558;18.508;2022-10-14T03:29:52;24.45;;;9.65;;
57101;SDS011;42982;54.558;18.508;2022-10-14T03:30:58;16.88;;;8.38;;
57101;SDS011;42982;54.558;18.508;2022-10-14T03:32:22;26.35;;;9.95;;
57101;SDS011;42982;54.558;18.508;2022-10-14T03:33:46;25.02;;;9.32;;
57101;SDS011;42982;54.558;18.508;2022-10-14T03:34:52;19.65;;;8.63;;
57101;SDS011;42982;54.558;18.508;2022-10-14T03:36:00;21.90;;;9.45;;
57101;SDS011;42982;54.558;18.508;2022-10-14T03:37:15;21.65;;;9.68;;
57101;SDS011;42982;54.558;18.508;2022-10-14T03:38:23;21.17;;;9.55;;
57101;SDS011;42982;54.558;18.508;2022-10-14T03:39:32;23.02;;;9.50;;
57101;SDS011;42982;54.558;18.508;2022-10-14T03:40:38;18.25;;;9.45;;
57101;SDS011;42982;54.558;18.508;2022-10-14T03:41:44;18.70;;;9.50;;
57101;SDS011;42982;54.558;18.508;2022-10-14T03:42:57;26.95;;;10.23;;
57101;SDS011;42982;54.558;18.508;2022-10-14T03:44:07;23.38;;;10.50;;
57101;SDS011;42982;54.558;18.508;2022-10-14T03:45:20;29.10;;;10.43;;
57101;SDS011;42982;54.558;18.508;2022-10-14T03:46:29;22.70;;;9.68;;
57101;SDS011;42982;54.558;18.508;2022-10-14T03:47:32;19.98;;;9.35;;
57101;SDS011;42982;54.558;18.508;2022-10-14T03:48:34;19.60;;;9.77;;
57101;SDS011;42982;54.558;18.508;2022-10-14T03:49:37;31.73;;;9.85;;
57101;SDS011;42982;54.558;18.508;2022-10-14T03:50:50;25.50;;;9.77;;
57101;SDS011;42982;54.558;18.508;2022-10-14T03:51:54;21.42;;;10.00;;
57101;SDS011;42982;54.558;18.508;2022-10-14T03:53:01;25.98;;;9.75;;
57101;SDS011;42982;54.558;18.508;2022-10-14T03:54:13;21.85;;;9.90;;
57101;SDS011;42982;54.558;18.508;2022-10-14T03:55:15;24.10;;;10.02;;
57101;SDS011;42982;54.558;18.508;2022-10-14T03:56:27;18.58;;;9.07;;
57101;SDS011;42982;54.558;18.508;2022-10-14T03:57:29;27.15;;;10.05;;
57101;SDS011;42982;54.558;18.508;2022-10-14T03:58:34;25.20;;;10.13;;
57101;SDS011;42982;54.558;18.508;2022-10-14T03:59:48;22.83;;;9.48;;
57101;SDS011;42982;54.558;18.508;2022-10-14T04:00:53;25.98;;;9.82;;
57101;SDS011;42982;54.558;18.508;2022-10-14T04:02:09;20.55;;;9.18;;
57101;SDS011;42982;54.558;18.508;2022-10-14T04:03:17;25.42;;;9.70;;
57101;SDS011;42982;54.558;18.508;2022-10-14T04:04:22;21.67;;;9.80;;
57101;SDS011;42982;54.558;18.508;2022-10-14T04:05:24;19.95;;;9.57;;
57101;SDS011;42982;54.558;18.508;2022-10-14T04:06:38;21.70;;;9.85;;
57101;SDS011;42982;54.558;18.508;2022-10-14T04:07:44;18.20;;;9.35;;
57101;SDS011;42982;54.558;18.508;2022-10-14T04:08:46;21.65;;;9.45;;
57101;SDS011;42982;54.558;18.508;2022-10-14T04:10:04;22.08;;;9.93;;
57101;SDS011;42982;54.558;18.508;2022-10-14T04:11:14;24.55;;;9.68;;
57101;SDS011;42982;54.558;18.508;2022-10-14T04:12:20;20.55;;;9.98;;
57101;SDS011;42982;54.558;18.508;2022-10-14T04:13:32;21.20;;;9.85;;
57101;SDS011;42982;54.558;18.508;2022-10-14T04:14:38;28.52;;;10.55;;
57101;SDS011;42982;54.558;18.508;2022-10-14T04:15:42;26.85;;;10.73;;
57101;SDS011;42982;54.558;18.508;2022-10-14T04:16:52;23.45;;;10.15;;
57101;SDS011;42982;54.558;18.508;2022-10-14T04:18:04;23.20;;;9.52;;
57101;SDS011;42982;54.558;18.508;2022-10-14T04:19:09;30.00;;;11.65;;
57101;SDS011;42982;54.558;18.508;2022-10-14T04:20:15;25.38;;;9.60;;
57101;SDS011;42982;54.558;18.508;2022-10-14T04:21:20;21.42;;;9.90;;
57101;SDS011;42982;54.558;18.508;2022-10-14T04:22:26;30.30;;;10.38;;
57101;SDS011;42982;54.558;18.508;2022-10-14T04:23:30;24.17;;;10.52;;
57101;SDS011;42982;54.558;18.508;2022-10-14T04:24:40;20.67;;;9.50;;
57101;SDS011;42982;54.558;18.508;2022-10-14T04:25:44;25.83;;;10.48;;
57101;SDS011;42982;54.558;18.508;2022-10-14T04:26:52;23.40;;;9.60;;
57101;SDS011;42982;54.558;18.508;2022-10-14T04:28:15;25.73;;;10.95;;
57101;SDS011;42982;54.558;18.508;2022-10-14T04:29:24;24.70;;;10.65;;
57101;SDS011;42982;54.558;18.508;2022-10-14T04:30:36;26.58;;;10.25;;
57101;SDS011;42982;54.558;18.508;2022-10-14T04:31:40;21.88;;;10.38;;
57101;SDS011;42982;54.558;18.508;2022-10-14T04:32:45;20.95;;;10.13;;
57101;SDS011;42982;54.558;18.508;2022-10-14T04:33:50;28.67;;;10.70;;
57101;SDS011;42982;54.558;18.508;2022-10-14T04:35:05;24.27;;;10.88;;
57101;SDS011;42982;54.558;18.508;2022-10-14T04:36:15;21.33;;;10.30;;
57101;SDS011;42982;54.558;18.508;2022-10-14T04:37:18;23.15;;;10.55;;
57101;SDS011;42982;54.558;18.508;2022-10-14T04:38:36;22.17;;;10.27;;
57101;SDS011;42982;54.558;18.508;2022-10-14T04:39:42;25.33;;;10.65;;
57101;SDS011;42982;54.558;18.508;2022-10-14T04:40:54;20.80;;;11.05;;
57101;SDS011;42982;54.558;18.508;2022-10-14T04:42:01;24.88;;;10.38;;
57101;SDS011;42982;54.558;18.508;2022-10-14T04:43:08;23.13;;;10.00;;
57101;SDS011;42982;54.558;18.508;2022-10-14T04:44:16;33.78;;;11.43;;
57101;SDS011;42982;54.558;18.508;2022-10-14T04:45:24;21.55;;;10.25;;
57101;SDS011;42982;54.558;18.508;2022-10-14T04:46:34;24.95;;;11.18;;
57101;SDS011;42982;54.558;18.508;2022-10-14T04:47:37;27.60;;;10.18;;
57101;SDS011;42982;54.558;18.508;2022-10-14T04:48:42;19.20;;;9.85;;
57101;SDS011;42982;54.558;18.508;2022-10-14T04:49:52;25.25;;;11.25;;
57101;SDS011;42982;54.558;18.508;2022-10-14T04:50:58;20.80;;;10.07;;
57101;SDS011;42982;54.558;18.508;2022-10-14T04:52:34;23.80;;;10.32;;
57101;SDS011;42982;54.558;18.508;2022-10-14T04:53:43;23.90;;;10.90;;
57101;SDS011;42982;54.558;18.508;2022-10-14T04:55:00;24.65;;;10.35;;
57101;SDS011;42982;54.558;18.508;2022-10-14T04:56:16;19.77;;;9.63;;
57101;SDS011;42982;54.558;18.508;2022-10-14T04:57:28;19.52;;;9.82;;
57101;SDS011;42982;54.558;18.508;2022-10-14T04:58:36;27.60;;;11.18;;
57101;SDS011;42982;54.558;18.508;2022-10-14T04:59:44;29.88;;;11.80;;
57101;SDS011;42982;54.558;18.508;2022-10-14T05:01:03;25.75;;;10.65;;
57101;SDS011;42982;54.558;18.508;2022-10-14T05:02:10;36.47;;;12.20;;
57101;SDS011;42982;54.558;18.508;2022-10-14T05:03:22;29.13;;;11.40;;
57101;SDS011;42982;54.558;18.508;2022-10-14T05:04:29;29.20;;;9.77;;
57101;SDS011;42982;54.558;18.508;2022-10-14T05:05:37;19.88;;;9.50;;
57101;SDS011;42982;54.558;18.508;2022-10-14T05:06:40;23.58;;;10.07;;
57101;SDS011;42982;54.558;18.508;2022-10-14T05:07:45;19.27;;;9.70;;
57101;SDS011;42982;54.558;18.508;2022-10-14T05:09:16;21.50;;;9.93;;
57101;SDS011;42982;54.558;18.508;2022-10-14T05:10:22;25.75;;;10.38;;
57101;SDS011;42982;54.558;18.508;2022-10-14T05:11:27;24.17;;;11.02;;
57101;SDS011;42982;54.558;18.508;2022-10-14T05:12:34;19.50;;;9.77;;
57101;SDS011;42982;54.558;18.508;2022-10-14T05:13:39;21.90;;;10.10;;
57101;SDS011;42982;54.558;18.508;2022-10-14T05:14:44;20.58;;;10.43;;
57101;SDS011;42982;54.558;18.508;2022-10-14T05:15:54;22.80;;;10.40;;
57101;SDS011;42982;54.558;18.508;2022-10-14T05:16:57;26.67;;;10.70;;
57101;SDS011;42982;54.558;18.508;2022-10-14T05:18:03;22.33;;;10.27;;
57101;SDS011;42982;54.558;18.508;2022-10-14T05:19:26;23.70;;;10.65;;
57101;SDS011;42982;54.558;18.508;2022-10-14T05:20:31;25.65;;;10.18;;
57101;SDS011;42982;54.558;18.508;2022-10-14T05:21:40;22.60;;;10.45;;
57101;SDS011;42982;54.558;18.508;2022-10-14T05:22:49;24.55;;;11.05;;
57101;SDS011;42982;54.558;18.508;2022-10-14T05:23:54;27.98;;;10.38;;
57101;SDS011;42982;54.558;18.508;2022-10-14T05:25:02;25.55;;;10.20;;
57101;SDS011;42982;54.558;18.508;2022-10-14T05:26:05;26.25;;;10.68;;
57101;SDS011;42982;54.558;18.508;2022-10-14T05:27:09;29.42;;;10.25;;
57101;SDS011;42982;54.558;18.508;2022-10-14T05:28:15;21.48;;;10.30;;
57101;SDS011;42982;54.558;18.508;2022-10-14T05:29:19;21.73;;;9.95;;
57101;SDS011;42982;54.558;18.508;2022-10-14T05:30:24;23.08;;;10.57;;
57101;SDS011;42982;54.558;18.508;2022-10-14T05:31:27;20.27;;;10.45;;
57101;SDS011;42982;54.558;18.508;2022-10-14T05:32:40;24.13;;;10.65;;
57101;SDS011;42982;54.558;18.508;2022-10-14T05:33:47;20.17;;;9.75;;
57101;SDS011;42982;54.558;18.508;2022-10-14T05:34:50;25.40;;;10.68;;
57101;SDS011;42982;54.558;18.508;2022-10-14T05:36:05;24.30;;;10.85;;
57101;SDS011;42982;54.558;18.508;2022-10-14T05:37:14;25.27;;;10.45;;
57101;SDS011;42982;54.558;18.508;2022-10-14T05:38:24;28.70;;;10.13;;
57101;SDS011;42982;54.558;18.508;2022-10-14T05:39:27;23.33;;;10.63;;
57101;SDS011;42982;54.558;18.508;2022-10-14T05:40:32;23.33;;;11.25;;
57101;SDS011;42982;54.558;18.508;2022-10-14T05:41:39;26.63;;;11.13;;
57101;SDS011;42982;54.558;18.508;2022-10-14T05:42:42;23.00;;;11.00;;
57101;SDS011;42982;54.558;18.508;2022-10-14T05:43:45;29.67;;;11.60;;
57101;SDS011;42982;54.558;18.508;2022-10-14T05:44:47;22.38;;;11.77;;
57101;SDS011;42982;54.558;18.508;2022-10-14T05:45:52;28.83;;;12.40;;
57101;SDS011;42982;54.558;18.508;2022-10-14T05:46:57;25.27;;;11.63;;
57101;SDS011;42982;54.558;18.508;2022-10-14T05:48:00;26.08;;;11.43;;
57101;SDS011;42982;54.558;18.508;2022-10-14T05:49:05;26.63;;;11.15;;
57101;SDS011;42982;54.558;18.508;2022-10-14T05:50:14;22.27;;;11.00;;
57101;SDS011;42982;54.558;18.508;2022-10-14T05:51:18;25.23;;;10.95;;
57101;SDS011;42982;54.558;18.508;2022-10-14T05:52:28;29.08;;;11.55;;
57101;SDS011;42982;54.558;18.508;2022-10-14T05:53:33;25.55;;;12.25;;
57101;SDS011;42982;54.558;18.508;2022-10-14T05:54:44;36.90;;;12.40;;
57101;SDS011;42982;54.558;18.508;2022-10-14T05:56:04;26.58;;;11.30;;
57101;SDS011;42982;54.558;18.508;2022-10-14T05:58:13;26.70;;;10.95;;
57101;SDS011;42982;54.558;18.508;2022-10-14T05:59:21;32.30;;;11.80;;
57101;SDS011;42982;54.558;18.508;2022-10-14T06:00:29;34.38;;;12.48;;
57101;SDS011;42982;54.558;18.508;2022-10-14T06:01:40;40.38;;;11.85;;
57101;SDS011;42982;54.558;18.508;2022-10-14T06:02:46;41.90;;;12.98;;
57101;SDS011;42982;54.558;18.508;2022-10-14T06:03:51;32.88;;;12.10;;
57101;SDS011;42982;54.558;18.508;2022-10-14T06:04:53;40.17;;;12.13;;
57101;SDS011;42982;54.558;18.508;2022-10-14T06:05:57;35.45;;;12.57;;
57101;SDS011;42982;54.558;18.508;2022-10-14T06:07:04;37.70;;;12.60;;
57101;SDS011;42982;54.558;18.508;2022-10-14T06:08:09;30.60;;;12.00;;
57101;SDS011;42982;54.558;18.508;2022-10-14T06:09:17;30.55;;;12.02;;
57101;SDS011;42982;54.558;18.508;2022-10-14T06:10:24;28.73;;;12.60;;
57101;SDS011;42982;54.558;18.508;2022-10-14T06:11:29;30.08;;;11.77;;
57101;SDS011;42982;54.558;18.508;2022-10-14T06:12:34;29.30;;;12.32;;
57101;SDS011;42982;54.558;18.508;2022-10-14T06:13:38;30.15;;;12.20;;
57101;SDS011;42982;54.558;18.508;2022-10-14T06:14:44;27.73;;;11.63;;
57101;SDS011;42982;54.558;18.508;2022-10-14T06:15:45;24.60;;;11.32;;
57101;SDS011;42982;54.558;18.508;2022-10-14T06:16:48;25.40;;;12.13;;
57101;SDS011;42982;54.558;18.508;2022-10-14T06:17:51;26.85;;;12.38;;
57101;SDS011;42982;54.558;18.508;2022-10-14T06:18:57;27.15;;;11.52;;
57101;SDS011;42982;54.558;18.508;2022-10-14T06:20:00;34.45;;;12.50;;
57101;SDS011;42982;54.558;18.508;2022-10-14T06:21:03;35.83;;;12.80;;
57101;SDS011;42982;54.558;18.508;2022-10-14T06:22:08;25.27;;;12.65;;
57101;SDS011;42982;54.558;18.508;2022-10-14T06:23:13;27.92;;;11.57;;
57101;SDS011;42982;54.558;18.508;2022-10-14T06:24:16;27.10;;;12.02;;
57101;SDS011;42982;54.558;18.508;2022-10-14T06:25:18;30.50;;;11.57;;
57101;SDS011;42982;54.558;18.508;2022-10-14T06:26:27;26.75;;;11.68;;
57101;SDS011;42982;54.558;18.508;2022-10-14T06:27:33;30.15;;;11.82;;
57101;SDS011;42982;54.558;18.508;2022-10-14T06:28:36;27.50;;;11.98;;
57101;SDS011;42982;54.558;18.508;2022-10-14T06:29:39;27.95;;;11.98;;
57101;SDS011;42982;54.558;18.508;2022-10-14T06:30:41;24.15;;;11.05;;
57101;SDS011;42982;54.558;18.508;2022-10-14T06:31:43;26.58;;;12.30;;
57101;SDS011;42982;54.558;18.508;2022-10-14T06:32:51;29.30;;;12.38;;
57101;SDS011;42982;54.558;18.508;2022-10-14T06:33:59;23.45;;;11.98;;
57101;SDS011;42982;54.558;18.508;2022-10-14T06:35:05;24.70;;;10.77;;
57101;SDS011;42982;54.558;18.508;2022-10-14T06:36:11;28.05;;;12.05;;
57101;SDS011;42982;54.558;18.508;2022-10-14T06:37:16;30.95;;;12.45;;
57101;SDS011;42982;54.558;18.508;2022-10-14T06:38:18;27.80;;;11.93;;
57101;SDS011;42982;54.558;18.508;2022-10-14T06:39:23;26.20;;;11.63;;
57101;SDS011;42982;54.558;18.508;2022-10-14T06:40:25;26.02;;;11.27;;
57101;SDS011;42982;54.558;18.508;2022-10-14T06:41:28;24.42;;;11.50;;
57101;SDS011;42982;54.558;18.508;2022-10-14T06:42:33;29.13;;;11.45;;
57101;SDS011;42982;54.558;18.508;2022-10-14T06:43:35;23.60;;;11.80;;
57101;SDS011;42982;54.558;18.508;2022-10-14T06:44:39;32.85;;;11.95;;
57101;SDS011;42982;54.558;18.508;2022-10-14T06:45:41;28.25;;;12.35;;
57101;SDS011;42982;54.558;18.508;2022-10-14T06:46:43;27.55;;;12.20;;
57101;SDS011;42982;54.558;18.508;2022-10-14T06:47:50;25.10;;;12.05;;
57101;SDS011;42982;54.558;18.508;2022-10-14T06:48:53;23.00;;;12.60;;
57101;SDS011;42982;54.558;18.508;2022-10-14T06:49:58;23.25;;;12.98;;
57101;SDS011;42982;54.558;18.508;2022-10-14T06:51:01;26.67;;;13.07;;
57101;SDS011;42982;54.558;18.508;2022-10-14T06:52:06;24.10;;;11.77;;
57101;SDS011;42982;54.558;18.508;2022-10-14T06:53:08;31.08;;;12.57;;
57101;SDS011;42982;54.558;18.508;2022-10-14T06:54:10;30.38;;;12.32;;
57101;SDS011;42982;54.558;18.508;2022-10-14T06:55:13;27.30;;;12.30;;
57101;SDS011;42982;54.558;18.508;2022-10-14T06:56:15;23.15;;;12.13;;
57101;SDS011;42982;54.558;18.508;2022-10-14T06:57:20;28.13;;;11.70;;
57101;SDS011;42982;54.558;18.508;2022-10-14T06:58:29;29.48;;;11.48;;